createdAt,value
2022-08-16T00:02:13.107Z,19.43
2022-08-16T00:05:57.532Z,19.40
2022-08-16T00:09:41.695Z,19.40
2022-08-16T00:13:27.667Z,19.39
2022-08-16T00:17:18.858Z,19.35
2022-08-16T00:21:03.824Z,19.27
2022-08-16T00:24:47.126Z,19.22
2022-08-16T00:28:35.906Z,19.26
2022-08-16T00:32:22.394Z,19.31
2022-08-16T00:36:05.783Z,19.32
2022-08-16T00:39:58.092Z,19.36
2022-08-16T00:43:44.380Z,19.41
2022-08-16T00:47:29.908Z,19.41
2022-08-16T00:51:16.086Z,19.34
2022-08-16T00:55:00.340Z,19.25
2022-08-16T00:58:46.403Z,19.18
2022-08-16T01:02:31.597Z,19.17
2022-08-16T01:06:39.932Z,19.16
2022-08-16T01:10:19.352Z,19.09
2022-08-16T01:14:20.071Z,19.02
2022-08-16T01:18:05.797Z,19.01
2022-08-16T01:21:54.959Z,19.02
2022-08-16T01:25:44.156Z,19.00
2022-08-16T01:29:37.443Z,18.94
2022-08-16T01:33:33.271Z,18.91
2022-08-16T01:37:18.494Z,18.91
2022-08-16T01:41:05.953Z,18.89
2022-08-16T01:44:49.404Z,18.89
2022-08-16T01:48:35.478Z,18.81
2022-08-16T01:52:28.283Z,18.77
2022-08-16T01:56:23.232Z,18.77
2022-08-16T02:00:10.570Z,18.75
2022-08-16T02:04:10.970Z,18.69
2022-08-16T02:07:54.451Z,18.66
2022-08-16T02:11:48.679Z,18.64
2022-08-16T02:15:42.502Z,18.58
2022-08-16T02:19:58.764Z,18.54
2022-08-16T02:23:31.183Z,18.45
2022-08-16T02:27:15.931Z,18.40
2022-08-16T02:31:01.320Z,18.34
2022-08-16T02:34:44.476Z,18.36
2022-08-16T02:38:27.606Z,18.28
2022-08-16T02:42:10.401Z,18.25
2022-08-16T02:45:56.492Z,18.20
2022-08-16T02:50:25.844Z,18.20
2022-08-16T02:53:44.976Z,18.19
2022-08-16T02:57:28.022Z,18.15
2022-08-16T03:01:24.096Z,18.08
2022-08-16T03:05:11.407Z,18.01
2022-08-16T03:08:55.015Z,17.95
2022-08-16T03:12:56.465Z,17.94
2022-08-16T03:16:59.806Z,17.93
2022-08-16T03:20:43.258Z,17.90
2022-08-16T03:24:41.493Z,17.85
2022-08-16T03:28:27.505Z,17.82
2022-08-16T03:32:14.611Z,17.79
2022-08-16T03:36:29.675Z,17.69
2022-08-16T03:40:03.345Z,17.62
2022-08-16T03:43:50.982Z,17.57
2022-08-16T03:47:36.482Z,17.49
2022-08-16T03:51:23.697Z,17.46
2022-08-16T03:55:14.673Z,17.45
2022-08-16T03:58:58.159Z,17.46
2022-08-16T04:02:44.280Z,17.44
2022-08-16T04:06:27.042Z,17.39
2022-08-16T04:10:37.134Z,17.37
2022-08-16T04:14:32.727Z,17.42
2022-08-16T04:18:17.755Z,17.52
2022-08-16T04:22:00.808Z,17.56
2022-08-16T04:25:47.146Z,17.52
2022-08-16T04:29:43.997Z,17.54
2022-08-16T04:33:30.549Z,17.62
2022-08-16T04:37:17.936Z,17.66
2022-08-16T04:41:00.695Z,17.62
2022-08-16T04:44:53.959Z,17.56
2022-08-16T04:48:40.010Z,17.55
2022-08-16T04:52:33.579Z,17.60
2022-08-16T04:56:18.737Z,17.66
2022-08-16T05:00:32.609Z,17.68
2022-08-16T05:04:09.431Z,17.64
2022-08-16T05:08:28.450Z,17.59
2022-08-16T05:12:05.974Z,17.51
2022-08-16T05:15:53.894Z,17.50
2022-08-16T05:19:38.708Z,17.54
2022-08-16T05:23:21.477Z,17.62
2022-08-16T05:27:11.417Z,17.69
2022-08-16T05:30:55.034Z,17.75
2022-08-16T05:34:39.199Z,17.79
2022-08-16T05:38:32.204Z,17.80
2022-08-16T05:42:21.488Z,17.85
2022-08-16T05:46:30.526Z,17.95
2022-08-16T05:50:19.351Z,18.04
2022-08-16T05:54:02.283Z,18.09
2022-08-16T05:57:47.269Z,18.16
2022-08-16T06:01:38.339Z,18.28
2022-08-16T06:05:25.922Z,18.44
2022-08-16T06:09:08.865Z,18.59
2022-08-16T06:12:55.654Z,18.73
2022-08-16T06:16:39.106Z,18.82
2022-08-16T06:20:34.657Z,18.95
2022-08-16T06:24:54.847Z,19.15
2022-08-16T06:28:35.629Z,19.28
2022-08-16T06:32:27.788Z,19.34
2022-08-16T06:36:14.294Z,19.37
2022-08-16T06:40:01.097Z,19.44
2022-08-16T06:43:44.072Z,19.53
2022-08-16T06:47:54.151Z,19.64
2022-08-16T06:51:48.409Z,19.73
2022-08-16T06:55:34.842Z,19.86
2022-08-16T06:59:21.225Z,19.95
2022-08-16T07:03:26.856Z,20.02
2022-08-16T07:07:11.276Z,20.14
2022-08-16T07:10:59.717Z,20.21
2022-08-16T07:14:44.633Z,20.37
2022-08-16T07:18:28.195Z,20.46
2022-08-16T07:22:37.472Z,20.58
2022-08-16T07:26:25.446Z,20.65
2022-08-16T07:30:26.626Z,20.71
2022-08-16T07:34:15.587Z,20.86
2022-08-16T07:37:58.927Z,21.04
2022-08-16T07:41:44.337Z,21.15
2022-08-16T07:45:27.134Z,21.27
2022-08-16T07:49:16.697Z,21.39
2022-08-16T07:53:02.080Z,21.49
2022-08-16T07:56:46.287Z,21.65
2022-08-16T08:00:29.374Z,21.73
2022-08-16T08:04:14.027Z,21.82
2022-08-16T08:07:57.747Z,21.81
2022-08-16T08:11:40.560Z,21.90
2022-08-16T08:15:53.166Z,22.03
2022-08-16T08:19:36.262Z,22.11
2022-08-16T08:23:24.104Z,22.18
2022-08-16T08:27:09.134Z,22.20
2022-08-16T08:31:01.596Z,22.25
2022-08-16T08:34:46.415Z,22.38
2022-08-16T08:38:45.290Z,22.47
2022-08-16T08:42:29.037Z,22.58
2022-08-16T08:46:17.790Z,22.54
2022-08-16T08:50:01.916Z,22.61
2022-08-16T08:53:44.655Z,22.64
2022-08-16T08:57:27.457Z,22.69
2022-08-16T09:01:13.104Z,22.69
2022-08-16T09:05:16.307Z,22.64
2022-08-16T09:08:59.889Z,22.67
2022-08-16T09:12:42.704Z,23.11
2022-08-16T09:17:01.110Z,23.10
2022-08-16T09:20:35.910Z,23.29
2022-08-16T09:24:52.158Z,23.34
2022-08-16T09:29:13.714Z,23.25
2022-08-16T09:32:40.769Z,23.43
2022-08-16T09:36:32.883Z,23.41
2022-08-16T09:40:32.507Z,23.50
2022-08-16T09:45:11.952Z,23.89
2022-08-16T09:48:44.110Z,23.79
2022-08-16T09:52:28.694Z,23.57
2022-08-16T09:56:17.726Z,23.65
2022-08-16T10:00:01.809Z,23.65
2022-08-16T10:04:01.711Z,23.67
2022-08-16T10:07:47.278Z,23.68
2022-08-16T10:11:50.367Z,23.66
2022-08-16T10:15:34.103Z,23.64
2022-08-16T10:19:19.233Z,23.77
2022-08-16T10:23:07.363Z,23.65
2022-08-16T10:27:19.335Z,23.58
2022-08-16T10:30:56.533Z,23.59
2022-08-16T10:34:43.216Z,23.64
2022-08-16T10:38:28.392Z,23.65
2022-08-16T10:42:13.123Z,23.83
2022-08-16T10:46:00.468Z,23.96
2022-08-16T10:49:45.300Z,24.03
2022-08-16T10:53:32.906Z,23.98
2022-08-16T10:57:16.921Z,23.97
2022-08-16T11:01:00.559Z,24.08
2022-08-16T11:08:47.546Z,24.11
2022-08-16T11:12:30.434Z,24.16
2022-08-16T11:24:41.852Z,24.45
2022-08-16T11:32:33.409Z,24.60
2022-08-16T11:36:27.378Z,24.74
2022-08-16T11:40:13.833Z,24.88
2022-08-16T11:43:57.429Z,24.98
2022-08-16T11:47:40.723Z,25.03
2022-08-16T11:51:23.521Z,25.19
2022-08-16T11:55:08.184Z,25.37
2022-08-16T11:58:56.985Z,25.35
2022-08-16T12:02:40.230Z,25.30
2022-08-16T12:06:30.534Z,25.22
2022-08-16T12:10:16.001Z,25.20
2022-08-16T12:14:00.340Z,25.22
2022-08-16T12:17:44.110Z,25.26
2022-08-16T12:21:26.960Z,25.33
2022-08-16T12:25:31.382Z,25.42
2022-08-16T12:29:16.379Z,25.51
2022-08-16T12:33:00.244Z,25.63
2022-08-16T12:36:46.427Z,25.88
2022-08-16T12:40:34.631Z,26.15
2022-08-16T12:44:19.984Z,26.33
2022-08-16T12:48:34.484Z,26.57
2022-08-16T12:52:33.244Z,26.92
2022-08-16T12:56:17.177Z,27.28
2022-08-16T13:00:03.177Z,27.66
2022-08-16T13:03:46.194Z,27.94
2022-08-16T13:07:29.291Z,27.86
2022-08-16T13:11:25.936Z,27.57
2022-08-16T13:15:12.805Z,27.40
2022-08-16T13:18:55.590Z,27.25
2022-08-16T13:22:41.277Z,27.50
2022-08-16T13:26:26.292Z,27.95
2022-08-16T13:30:35.628Z,28.38
2022-08-16T13:34:18.425Z,28.68
2022-08-16T13:38:02.014Z,28.79
2022-08-16T13:41:44.940Z,28.91
2022-08-16T13:45:44.936Z,29.16
2022-08-16T13:49:28.064Z,29.42
2022-08-16T13:53:12.545Z,29.83
2022-08-16T13:56:58.101Z,29.97
2022-08-16T14:00:42.275Z,30.30
2022-08-16T14:04:27.178Z,30.37
2022-08-16T14:08:10.796Z,30.48
2022-08-16T14:11:54.373Z,30.79
2022-08-16T14:15:37.704Z,31.11
2022-08-16T14:19:26.497Z,31.15
2022-08-16T14:23:11.138Z,31.12
2022-08-16T14:26:54.682Z,31.29
2022-08-16T14:30:40.437Z,31.24
2022-08-16T14:34:25.662Z,31.11
2022-08-16T14:38:10.078Z,31.06
2022-08-16T14:41:56.844Z,30.62
2022-08-16T14:45:39.812Z,30.46
2022-08-16T14:49:22.581Z,30.45
2022-08-16T14:53:08.690Z,30.53
2022-08-16T14:56:55.012Z,30.55
2022-08-16T15:00:38.121Z,30.70
2022-08-16T15:04:32.550Z,30.91
2022-08-16T15:08:36.175Z,31.28
2022-08-16T15:12:27.060Z,32.31
2022-08-16T15:16:13.522Z,32.98
2022-08-16T15:19:57.060Z,33.74
2022-08-16T15:23:41.351Z,34.71
2022-08-16T15:27:26.527Z,35.83
2022-08-16T15:31:19.211Z,36.75
2022-08-16T15:35:03.609Z,37.08
2022-08-16T15:38:57.030Z,37.48
2022-08-16T15:42:54.160Z,37.28
2022-08-16T15:46:54.768Z,36.98
2022-08-16T15:50:44.597Z,36.69
2022-08-16T15:54:30.875Z,35.95
2022-08-16T15:58:35.412Z,35.54
2022-08-16T16:02:27.375Z,35.48
2022-08-16T16:06:16.506Z,35.58
2022-08-16T16:10:00.051Z,35.62
2022-08-16T16:13:44.793Z,35.77
2022-08-16T16:17:29.348Z,35.56
2022-08-16T16:21:13.004Z,35.43
2022-08-16T16:25:03.485Z,35.32
2022-08-16T16:29:07.532Z,35.22
2022-08-16T16:32:51.759Z,35.20
2022-08-16T16:36:35.124Z,34.99
2022-08-16T16:40:28.900Z,34.89
2022-08-16T16:44:18.128Z,34.66
2022-08-16T16:48:14.705Z,34.38
2022-08-16T16:52:06.891Z,34.18
2022-08-16T16:55:52.559Z,34.06
2022-08-16T16:59:36.757Z,33.99
2022-08-16T17:03:19.579Z,33.97
2022-08-16T17:07:04.199Z,33.82
2022-08-16T17:10:54.009Z,33.53
2022-08-16T17:14:42.779Z,33.20
2022-08-16T17:19:16.578Z,32.99
2022-08-16T17:22:32.760Z,32.66
2022-08-16T17:26:16.019Z,32.18
2022-08-16T17:30:00.975Z,31.68
2022-08-16T17:33:54.471Z,31.25
2022-08-16T17:37:54.075Z,30.79
2022-08-16T17:41:38.318Z,30.43
2022-08-16T17:45:26.112Z,30.14
2022-08-16T17:49:08.933Z,29.84
2022-08-16T17:52:53.023Z,29.57
2022-08-16T17:56:35.856Z,29.28
2022-08-16T18:00:20.574Z,29.05
2022-08-16T18:04:09.643Z,28.78
2022-08-16T18:07:53.293Z,28.43
2022-08-16T18:11:40.962Z,28.11
2022-08-16T18:15:25.363Z,27.82
2022-08-16T18:19:09.823Z,27.55
2022-08-16T18:22:52.665Z,27.32
2022-08-16T18:26:35.644Z,27.10
2022-08-16T18:30:18.430Z,26.85
2022-08-16T18:34:02.725Z,26.62
2022-08-16T18:37:47.205Z,26.44
2022-08-16T18:41:30.495Z,26.29
2022-08-16T18:45:13.600Z,26.14
2022-08-16T18:48:58.666Z,26.03
2022-08-16T18:52:51.324Z,25.92
2022-08-16T18:56:55.229Z,25.82
2022-08-16T19:00:50.551Z,25.73
2022-08-16T19:04:56.349Z,25.64
2022-08-16T19:08:43.989Z,25.50
2022-08-16T19:12:38.360Z,25.38
2022-08-16T19:16:25.008Z,25.27
2022-08-16T19:20:10.999Z,25.20
2022-08-16T19:23:56.400Z,25.14
2022-08-16T19:27:41.355Z,25.11
2022-08-16T19:31:26.390Z,25.05
2022-08-16T19:35:10.672Z,25.01
2022-08-16T19:38:54.891Z,24.95
2022-08-16T19:42:39.566Z,24.88
2022-08-16T19:46:22.494Z,24.77
2022-08-16T19:50:07.910Z,24.73
2022-08-16T19:53:50.737Z,24.69
2022-08-16T19:57:35.989Z,24.67
2022-08-16T20:01:18.820Z,24.65
2022-08-16T20:05:06.264Z,24.59
2022-08-16T20:08:49.080Z,24.55
2022-08-16T20:12:31.878Z,24.44
2022-08-16T20:16:16.368Z,24.37
2022-08-16T20:19:59.242Z,24.35
2022-08-16T20:23:42.268Z,24.30
2022-08-16T20:27:25.010Z,24.22
2022-08-16T20:31:07.831Z,24.22
2022-08-16T20:34:57.391Z,24.18
2022-08-16T20:38:42.586Z,24.15
2022-08-16T20:42:27.524Z,24.10
2022-08-16T20:46:10.314Z,24.00
2022-08-16T20:49:54.758Z,23.91
2022-08-16T20:53:37.837Z,23.86
2022-08-16T20:57:20.772Z,23.87
2022-08-16T21:01:04.078Z,23.87
2022-08-16T21:04:46.899Z,23.80
2022-08-16T21:08:52.681Z,23.76
2022-08-16T21:12:37.753Z,23.70
2022-08-16T21:16:20.937Z,23.63
2022-08-16T21:20:08.476Z,23.55
2022-08-16T21:23:53.031Z,23.50
2022-08-16T21:27:35.759Z,23.47
2022-08-16T21:31:39.482Z,23.44
2022-08-16T21:35:22.223Z,23.47
2022-08-16T21:39:07.377Z,23.46
2022-08-16T21:42:50.246Z,23.40
2022-08-16T21:46:33.943Z,23.10
2022-08-16T21:50:16.903Z,22.63
2022-08-16T21:54:02.161Z,22.38
2022-08-16T21:57:46.367Z,22.28
2022-08-16T22:01:29.509Z,22.15
2022-08-16T22:05:12.422Z,22.04
2022-08-16T22:08:55.194Z,22.03
2022-08-16T22:12:40.079Z,22.07
2022-08-16T22:16:24.630Z,22.03
2022-08-16T22:20:10.220Z,21.94
2022-08-16T22:23:57.714Z,21.89
2022-08-16T22:27:42.289Z,21.77
2022-08-16T22:31:26.817Z,21.60
2022-08-16T22:35:12.519Z,21.53
2022-08-16T22:38:58.695Z,21.45
2022-08-16T22:42:49.794Z,21.38
2022-08-16T22:46:34.859Z,21.32
2022-08-16T22:50:17.675Z,21.25
2022-08-16T22:54:00.684Z,21.19
2022-08-16T22:58:03.487Z,21.12
2022-08-16T23:01:50.219Z,21.06
2022-08-16T23:05:35.741Z,20.98
2022-08-16T23:09:18.733Z,20.89
2022-08-16T23:13:04.352Z,20.76
2022-08-16T23:16:48.513Z,20.69
2022-08-16T23:20:33.101Z,20.64
2022-08-16T23:24:19.322Z,20.63
2022-08-16T23:28:03.416Z,20.62
2022-08-16T23:31:46.222Z,20.62
2022-08-16T23:35:45.042Z,20.58
2022-08-16T23:39:29.449Z,20.58
2022-08-16T23:43:14.422Z,20.57
2022-08-16T23:46:57.225Z,20.52
2022-08-16T23:50:43.463Z,20.55
2022-08-16T23:54:26.266Z,20.58
2022-08-16T23:58:09.288Z,20.60
